SAV387A EGGD-LIPQ
Flight info
| Callsign | SAV387A |
|---|---|
| Flight time | 1h 49m |
| Altitude | 41000 |
| Route | YORQI DCT NUCHU L607 KONAN UL607 SPI DCT ULNOK DCT VIBOM DCT NOMBO DCT RIDAR DCT RADIZ DCT ARNOS P125 LUPIN |
| Aircraft | B788/H-SDE1E2E3FGHIJ2J3J4J5M1RWXY/LB1D1 |
Departure
| Time | 2026-04-14 14:26 |
|---|---|
| Airport | Bristol Airport (EGGD) |
Arrival
| Time | 2026-04-14 16:15 |
|---|---|
| Airport | Trieste Airport (LIPQ) |
| Time | Latitude | Longitude | Altitude | Speed | Heading |
|---|---|---|---|---|---|
| 2026-04-14 14:21 | 51.38438 | -2.71625 | 622 ft | 2 kts | 283° |
| 2026-04-14 14:22 | 51.38441 | -2.71703 | 631 ft | 11 kts | 271° |
| 2026-04-14 14:22 | 51.38436 | -2.71872 | 630 ft | 19 kts | 265° |
| 2026-04-14 14:22 | 51.38426 | -2.72123 | 634 ft | 25 kts | 268° |
| 2026-04-14 14:22 | 51.38416 | -2.72415 | 632 ft | 28 kts | 265° |
| 2026-04-14 14:23 | 51.38406 | -2.72635 | 638 ft | 32 kts | 266° |
| 2026-04-14 14:23 | 51.38390 | -2.73007 | 630 ft | 31 kts | 268° |
| 2026-04-14 14:23 | 51.38380 | -2.73240 | 636 ft | 20 kts | 253° |
| 2026-04-14 14:23 | 51.38286 | -2.73341 | 628 ft | 16 kts | 180° |
| 2026-04-14 14:24 | 51.38224 | -2.73302 | 640 ft | 6 kts | 122° |
| 2026-04-14 14:24 | 51.38216 | -2.73259 | 637 ft | 0 kts | 90° |
| 2026-04-14 14:25 | 51.38216 | -2.73246 | 637 ft | 9 kts | 91° |
| 2026-04-14 14:25 | 51.38233 | -2.72760 | 634 ft | 85 kts | 86° |
| 2026-04-14 14:25 | 51.38292 | -2.71367 | 656 ft | 162 kts | 90° |
| 2026-04-14 14:25 | 51.38416 | -2.69340 | 1036 ft | 205 kts | 89° |
| 2026-04-14 14:26 | 51.38534 | -2.67036 | 2419 ft | 183 kts | 95° |
| 2026-04-14 14:26 | 51.38536 | -2.65113 | 3893 ft | 183 kts | 98° |
| 2026-04-14 14:26 | 51.38511 | -2.62759 | 3999 ft | 235 kts | 92° |
| 2026-04-14 14:26 | 51.38637 | -2.60044 | 4032 ft | 253 kts | 91° |
| 2026-04-14 14:27 | 51.38770 | -2.57156 | 4113 ft | 268 kts | 86° |
| 2026-04-14 14:27 | 51.39568 | -2.54346 | 4168 ft | 290 kts | 53° |
| 2026-04-14 14:27 | 51.41150 | -2.52424 | 4547 ft | 288 kts | 24° |
| 2026-04-14 14:27 | 51.43010 | -2.51180 | 4703 ft | 291 kts | 27° |
| 2026-04-14 14:28 | 51.44835 | -2.49747 | 4968 ft | 292 kts | 27° |
| 2026-04-14 14:28 | 51.46611 | -2.48165 | 5181 ft | 292 kts | 29° |
| 2026-04-14 14:28 | 51.48378 | -2.46530 | 5473 ft | 294 kts | 32° |
| 2026-04-14 14:28 | 51.50100 | -2.44736 | 5744 ft | 295 kts | 38° |
| 2026-04-14 14:29 | 51.51397 | -2.42260 | 5983 ft | 290 kts | 66° |
| 2026-04-14 14:29 | 51.51902 | -2.39189 | 6216 ft | 283 kts | 93° |
| 2026-04-14 14:29 | 51.51756 | -2.36070 | 6422 ft | 281 kts | 101° |
| 2026-04-14 14:29 | 51.51531 | -2.32955 | 6659 ft | 281 kts | 102° |
| 2026-04-14 14:30 | 51.51306 | -2.29829 | 6908 ft | 281 kts | 101° |
| 2026-04-14 14:30 | 51.51094 | -2.26701 | 7126 ft | 283 kts | 100° |
| 2026-04-14 14:30 | 51.50882 | -2.23578 | 7591 ft | 285 kts | 100° |
| 2026-04-14 14:30 | 51.50667 | -2.20448 | 8975 ft | 283 kts | 100° |
| 2026-04-14 14:31 | 51.50442 | -2.17245 | 10141 ft | 292 kts | 100° |
| 2026-04-14 14:31 | 51.50214 | -2.13975 | 11194 ft | 299 kts | 99° |
| 2026-04-14 14:31 | 51.49979 | -2.10614 | 12299 ft | 305 kts | 98° |
| 2026-04-14 14:31 | 51.49736 | -2.07136 | 12969 ft | 325 kts | 98° |
| 2026-04-14 14:32 | 51.49481 | -2.03496 | 13071 ft | 322 kts | 98° |
| 2026-04-14 14:32 | 51.49222 | -1.99841 | 13113 ft | 343 kts | 98° |
| 2026-04-14 14:32 | 51.48936 | -1.95873 | 13165 ft | 372 kts | 98° |
| 2026-04-14 14:32 | 51.48638 | -1.91696 | 13695 ft | 383 kts | 97° |
| 2026-04-14 14:33 | 51.48334 | -1.87420 | 14408 ft | 389 kts | 97° |
| 2026-04-14 14:33 | 51.48021 | -1.83077 | 15068 ft | 393 kts | 97° |
| 2026-04-14 14:33 | 51.47701 | -1.78692 | 15745 ft | 398 kts | 97° |
| 2026-04-14 14:33 | 51.47393 | -1.74471 | 16379 ft | 402 kts | 97° |
| 2026-04-14 14:34 | 51.46597 | -1.65480 | 17628 ft | 411 kts | 104° |
| 2026-04-14 14:34 | 51.45965 | -1.60988 | 18264 ft | 415 kts | 102° |
| 2026-04-14 14:34 | 51.45367 | -1.56434 | 18804 ft | 419 kts | 102° |
| 2026-04-14 14:35 | 51.44754 | -1.51841 | 19336 ft | 423 kts | 102° |
| 2026-04-14 14:35 | 51.44110 | -1.47213 | 19852 ft | 427 kts | 103° |
| 2026-04-14 14:35 | 51.43460 | -1.42542 | 20348 ft | 431 kts | 102° |
| 2026-04-14 14:35 | 51.42814 | -1.37831 | 20830 ft | 435 kts | 102° |
| 2026-04-14 14:36 | 51.42167 | -1.33114 | 21318 ft | 438 kts | 102° |
| 2026-04-14 14:36 | 51.41501 | -1.28321 | 21796 ft | 442 kts | 102° |
| 2026-04-14 14:36 | 51.40836 | -1.23564 | 22231 ft | 446 kts | 102° |
| 2026-04-14 14:36 | 51.40157 | -1.18699 | 22677 ft | 449 kts | 102° |
| 2026-04-14 14:37 | 51.39570 | -1.13769 | 23079 ft | 452 kts | 94° |
| 2026-04-14 14:37 | 51.39326 | -1.08758 | 23473 ft | 455 kts | 93° |
| 2026-04-14 14:37 | 51.39068 | -1.03685 | 23838 ft | 458 kts | 93° |
| 2026-04-14 14:37 | 51.38798 | -0.98576 | 24181 ft | 461 kts | 93° |
| 2026-04-14 14:38 | 51.38532 | -0.93438 | 24504 ft | 464 kts | 93° |
| 2026-04-14 14:38 | 51.38266 | -0.88286 | 24816 ft | 466 kts | 92° |
| 2026-04-14 14:38 | 51.37993 | -0.83073 | 25144 ft | 469 kts | 92° |
| 2026-04-14 14:38 | 51.37714 | -0.77858 | 25449 ft | 471 kts | 92° |
| 2026-04-14 14:39 | 51.37436 | -0.72685 | 25744 ft | 474 kts | 92° |
| 2026-04-14 14:39 | 51.37152 | -0.67420 | 26051 ft | 476 kts | 92° |
| 2026-04-14 14:39 | 51.36884 | -0.62475 | 26324 ft | 478 kts | 92° |
| 2026-04-14 14:39 | 51.36584 | -0.57019 | 26617 ft | 481 kts | 92° |
| 2026-04-14 14:40 | 51.36288 | -0.51683 | 26904 ft | 483 kts | 92° |
| 2026-04-14 14:40 | 51.36027 | -0.47001 | 27161 ft | 484 kts | 92° |
| 2026-04-14 14:40 | 51.35725 | -0.41622 | 27442 ft | 487 kts | 92° |
| 2026-04-14 14:40 | 51.35427 | -0.36373 | 27706 ft | 489 kts | 92° |
| 2026-04-14 14:41 | 51.35116 | -0.30934 | 27989 ft | 491 kts | 92° |
| 2026-04-14 14:41 | 51.34802 | -0.25483 | 28264 ft | 493 kts | 92° |
| 2026-04-14 14:41 | 51.34484 | -0.20019 | 28553 ft | 494 kts | 92° |
| 2026-04-14 14:41 | 51.34162 | -0.14523 | 28801 ft | 496 kts | 91° |
| 2026-04-14 14:42 | 51.33837 | -0.09018 | 29070 ft | 498 kts | 91° |
| 2026-04-14 14:42 | 51.33508 | -0.03484 | 29336 ft | 500 kts | 91° |
| 2026-04-14 14:42 | 51.33179 | 0.01991 | 29569 ft | 502 kts | 91° |
| 2026-04-14 14:42 | 51.32716 | 0.07388 | 29770 ft | 505 kts | 95° |
| 2026-04-14 14:43 | 51.32190 | 0.12957 | 30026 ft | 506 kts | 94° |
| 2026-04-14 14:43 | 51.31682 | 0.18535 | 30242 ft | 508 kts | 94° |
| 2026-04-14 14:43 | 51.31158 | 0.24123 | 30426 ft | 510 kts | 95° |
| 2026-04-14 14:44 | 51.30071 | 0.35372 | 30634 ft | 513 kts | 95° |
| 2026-04-14 14:44 | 51.29532 | 0.41030 | 30804 ft | 514 kts | 95° |
| 2026-04-14 14:44 | 51.28990 | 0.46685 | 30980 ft | 516 kts | 95° |
| 2026-04-14 14:44 | 51.28437 | 0.52353 | 31160 ft | 517 kts | 95° |
| 2026-04-14 14:45 | 51.27878 | 0.58043 | 31334 ft | 519 kts | 95° |
| 2026-04-14 14:45 | 51.27321 | 0.63734 | 31521 ft | 520 kts | 95° |
| 2026-04-14 14:45 | 51.26758 | 0.69455 | 31702 ft | 521 kts | 95° |
| 2026-04-14 14:45 | 51.26198 | 0.75103 | 31890 ft | 522 kts | 95° |
| 2026-04-14 14:46 | 51.25624 | 0.80839 | 32080 ft | 524 kts | 95° |
| 2026-04-14 14:46 | 51.25048 | 0.86595 | 32267 ft | 525 kts | 95° |
| 2026-04-14 14:46 | 51.24468 | 0.92361 | 32486 ft | 526 kts | 94° |
| 2026-04-14 14:46 | 51.23884 | 0.98133 | 32634 ft | 527 kts | 94° |
| 2026-04-14 14:47 | 51.23295 | 1.03910 | 32781 ft | 528 kts | 94° |
| 2026-04-14 14:47 | 51.22703 | 1.09703 | 32929 ft | 529 kts | 94° |
| 2026-04-14 14:47 | 51.22107 | 1.15500 | 33073 ft | 530 kts | 94° |
| 2026-04-14 14:47 | 51.21507 | 1.21306 | 33211 ft | 531 kts | 94° |
| 2026-04-14 14:48 | 51.20904 | 1.27114 | 33343 ft | 532 kts | 94° |
| 2026-04-14 14:48 | 51.20296 | 1.32938 | 33505 ft | 532 kts | 94° |
| 2026-04-14 14:48 | 51.19687 | 1.38746 | 33725 ft | 531 kts | 94° |
| 2026-04-14 14:48 | 51.19082 | 1.44481 | 33908 ft | 530 kts | 94° |
| 2026-04-14 14:49 | 51.18461 | 1.50351 | 34100 ft | 530 kts | 94° |
| 2026-04-14 14:49 | 51.17852 | 1.56066 | 34273 ft | 529 kts | 94° |
| 2026-04-14 14:49 | 51.17227 | 1.61910 | 34431 ft | 529 kts | 94° |
| 2026-04-14 14:49 | 51.16615 | 1.67606 | 34580 ft | 528 kts | 94° |
| 2026-04-14 14:50 | 51.15992 | 1.73373 | 34727 ft | 528 kts | 94° |
| 2026-04-14 14:50 | 51.15367 | 1.79130 | 34871 ft | 528 kts | 94° |
| 2026-04-14 14:50 | 51.14738 | 1.84904 | 35012 ft | 528 kts | 94° |
| 2026-04-14 14:50 | 51.14107 | 1.90662 | 35147 ft | 527 kts | 94° |
| 2026-04-14 14:51 | 51.13474 | 1.96414 | 35290 ft | 527 kts | 94° |
| 2026-04-14 14:51 | 51.12956 | 2.02166 | 35409 ft | 522 kts | 88° |
| 2026-04-14 14:51 | 51.12655 | 2.07931 | 35511 ft | 522 kts | 88° |
| 2026-04-14 14:51 | 51.12354 | 2.13692 | 35657 ft | 522 kts | 89° |
| 2026-04-14 14:52 | 51.12043 | 2.19445 | 35786 ft | 522 kts | 89° |
| 2026-04-14 14:52 | 51.11726 | 2.25209 | 35898 ft | 522 kts | 89° |
| 2026-04-14 14:52 | 51.11409 | 2.30971 | 36016 ft | 523 kts | 89° |
| 2026-04-14 14:52 | 51.11092 | 2.36736 | 36134 ft | 523 kts | 89° |
| 2026-04-14 14:53 | 51.10774 | 2.42430 | 36251 ft | 523 kts | 89° |
| 2026-04-14 14:53 | 51.10447 | 2.48204 | 36370 ft | 523 kts | 89° |
| 2026-04-14 14:53 | 51.10118 | 2.53977 | 36467 ft | 524 kts | 89° |
| 2026-04-14 14:53 | 51.09788 | 2.59743 | 36595 ft | 524 kts | 89° |
| 2026-04-14 14:54 | 51.09342 | 2.65503 | 36706 ft | 529 kts | 97° |
| 2026-04-14 14:54 | 51.07370 | 2.76867 | 36912 ft | 534 kts | 101° |
| 2026-04-14 14:54 | 51.06329 | 2.82528 | 37040 ft | 533 kts | 101° |
| 2026-04-14 14:55 | 51.05298 | 2.88191 | 37168 ft | 533 kts | 101° |
| 2026-04-14 14:55 | 51.04272 | 2.93868 | 37285 ft | 533 kts | 101° |
| 2026-04-14 14:55 | 51.03239 | 2.99523 | 37417 ft | 533 kts | 102° |
| 2026-04-14 14:55 | 51.02195 | 3.05177 | 37553 ft | 533 kts | 102° |
| 2026-04-14 14:56 | 51.00123 | 3.16418 | 37802 ft | 533 kts | 102° |
| 2026-04-14 14:56 | 50.99079 | 3.22065 | 37938 ft | 533 kts | 102° |
| 2026-04-14 14:56 | 50.98028 | 3.27708 | 38089 ft | 532 kts | 102° |
| 2026-04-14 14:57 | 50.96979 | 3.33330 | 38232 ft | 531 kts | 102° |
| 2026-04-14 14:57 | 50.95929 | 3.38950 | 38376 ft | 531 kts | 102° |
| 2026-04-14 14:57 | 50.94878 | 3.44562 | 38526 ft | 530 kts | 102° |
| 2026-04-14 14:57 | 50.93821 | 3.50177 | 38658 ft | 530 kts | 102° |
| 2026-04-14 14:58 | 50.92763 | 3.55780 | 38804 ft | 529 kts | 102° |
| 2026-04-14 14:58 | 50.91706 | 3.61366 | 38929 ft | 529 kts | 103° |
| 2026-04-14 14:58 | 50.90647 | 3.66944 | 39057 ft | 528 kts | 103° |
| 2026-04-14 14:58 | 50.89588 | 3.72444 | 39194 ft | 527 kts | 103° |
| 2026-04-14 14:59 | 50.88515 | 3.77970 | 39346 ft | 525 kts | 103° |
| 2026-04-14 14:59 | 50.87446 | 3.83493 | 39497 ft | 524 kts | 103° |
| 2026-04-14 14:59 | 50.86379 | 3.89017 | 39651 ft | 522 kts | 104° |
| 2026-04-14 14:59 | 50.85309 | 3.94516 | 39792 ft | 521 kts | 104° |
| 2026-04-14 15:00 | 50.84253 | 3.99918 | 39938 ft | 519 kts | 104° |
| 2026-04-14 15:00 | 50.83186 | 4.05361 | 40339 ft | 508 kts | 104° |
| 2026-04-14 15:00 | 50.82152 | 4.10625 | 41064 ft | 497 kts | 105° |
| 2026-04-14 15:00 | 50.81130 | 4.15833 | 41190 ft | 497 kts | 105° |
| 2026-04-14 15:01 | 50.79082 | 4.26205 | 41196 ft | 493 kts | 105° |
| 2026-04-14 15:01 | 50.77017 | 4.36603 | 41201 ft | 499 kts | 105° |
| 2026-04-14 15:02 | 50.74915 | 4.47128 | 41208 ft | 504 kts | 105° |
| 2026-04-14 15:02 | 50.72795 | 4.57683 | 41217 ft | 509 kts | 105° |
| 2026-04-14 15:03 | 50.70692 | 4.68369 | 41213 ft | 510 kts | 104° |
| 2026-04-14 15:03 | 50.68640 | 4.79100 | 41216 ft | 510 kts | 105° |
| 2026-04-14 15:04 | 50.66532 | 4.89778 | 41212 ft | 509 kts | 105° |
| 2026-04-14 15:04 | 50.64401 | 5.00397 | 41215 ft | 508 kts | 107° |
| 2026-04-14 15:05 | 50.62211 | 5.10887 | 41219 ft | 507 kts | 106° |
| 2026-04-14 15:05 | 50.60037 | 5.21514 | 41217 ft | 507 kts | 106° |
| 2026-04-14 15:06 | 50.57845 | 5.31985 | 41221 ft | 506 kts | 106° |
| 2026-04-14 15:06 | 50.55652 | 5.42525 | 41217 ft | 506 kts | 106° |
| 2026-04-14 15:07 | 50.53439 | 5.53034 | 41219 ft | 506 kts | 107° |
| 2026-04-14 15:07 | 50.51227 | 5.63526 | 41216 ft | 505 kts | 107° |
| 2026-04-14 15:08 | 50.48885 | 5.73919 | 41214 ft | 504 kts | 108° |
| 2026-04-14 15:08 | 50.46552 | 5.84309 | 41203 ft | 504 kts | 107° |
| 2026-04-14 15:09 | 50.44215 | 5.94672 | 41199 ft | 502 kts | 108° |
| 2026-04-14 15:09 | 50.42264 | 6.03233 | 41193 ft | 501 kts | 108° |
| 2026-04-14 15:10 | 50.39545 | 6.15196 | 41188 ft | 500 kts | 108° |
| 2026-04-14 15:10 | 50.37188 | 6.25457 | 41186 ft | 500 kts | 108° |
| 2026-04-14 15:11 | 50.35230 | 6.33980 | 41186 ft | 500 kts | 108° |
| 2026-04-14 15:11 | 50.32856 | 6.44237 | 41185 ft | 501 kts | 108° |
| 2026-04-14 15:12 | 50.30474 | 6.54492 | 41185 ft | 502 kts | 109° |
| 2026-04-14 15:12 | 50.28081 | 6.64743 | 41184 ft | 501 kts | 109° |
| 2026-04-14 15:13 | 50.25683 | 6.74965 | 41186 ft | 501 kts | 109° |
| 2026-04-14 15:13 | 50.23271 | 6.85200 | 41188 ft | 502 kts | 109° |
| 2026-04-14 15:14 | 50.20847 | 6.95437 | 41195 ft | 502 kts | 109° |
| 2026-04-14 15:14 | 50.18430 | 7.05595 | 41195 ft | 502 kts | 109° |
| 2026-04-14 15:15 | 50.15991 | 7.15800 | 41193 ft | 502 kts | 109° |
| 2026-04-14 15:15 | 50.13543 | 7.25994 | 41192 ft | 501 kts | 109° |
| 2026-04-14 15:16 | 50.11090 | 7.36160 | 41211 ft | 501 kts | 109° |
| 2026-04-14 15:16 | 50.08624 | 7.46335 | 41215 ft | 501 kts | 109° |
| 2026-04-14 15:17 | 50.06169 | 7.56414 | 41207 ft | 501 kts | 109° |
| 2026-04-14 15:17 | 50.03687 | 7.66558 | 41205 ft | 501 kts | 109° |
| 2026-04-14 15:18 | 50.01198 | 7.76686 | 41200 ft | 500 kts | 110° |
| 2026-04-14 15:18 | 49.98705 | 7.86786 | 41194 ft | 500 kts | 110° |
| 2026-04-14 15:19 | 49.96204 | 7.96870 | 41195 ft | 500 kts | 110° |
| 2026-04-14 15:19 | 49.93864 | 8.06263 | 41194 ft | 500 kts | 110° |
| 2026-04-14 15:20 | 49.91344 | 8.16337 | 41196 ft | 500 kts | 110° |
| 2026-04-14 15:20 | 49.88832 | 8.26332 | 41192 ft | 500 kts | 110° |
| 2026-04-14 15:21 | 49.86301 | 8.36357 | 41190 ft | 499 kts | 110° |
| 2026-04-14 15:21 | 49.82969 | 8.45666 | 41211 ft | 500 kts | 128° |
| 2026-04-14 15:22 | 49.78610 | 8.54104 | 41189 ft | 501 kts | 128° |
| 2026-04-14 15:22 | 49.74274 | 8.62523 | 41192 ft | 500 kts | 128° |
| 2026-04-14 15:23 | 49.69929 | 8.70917 | 41189 ft | 499 kts | 128° |
| 2026-04-14 15:23 | 49.65595 | 8.79264 | 41187 ft | 498 kts | 128° |
| 2026-04-14 15:24 | 49.61272 | 8.87566 | 41190 ft | 498 kts | 128° |
| 2026-04-14 15:24 | 49.56952 | 8.95831 | 41187 ft | 497 kts | 128° |
| 2026-04-14 15:25 | 49.52612 | 9.04116 | 41187 ft | 497 kts | 128° |
| 2026-04-14 15:25 | 49.48260 | 9.12392 | 41188 ft | 497 kts | 128° |
| 2026-04-14 15:26 | 49.44257 | 9.21025 | 41186 ft | 496 kts | 122° |
| 2026-04-14 15:26 | 49.40509 | 9.29939 | 41192 ft | 496 kts | 123° |
| 2026-04-14 15:27 | 49.36708 | 9.38773 | 41188 ft | 496 kts | 123° |
| 2026-04-14 15:27 | 49.32950 | 9.47580 | 41191 ft | 496 kts | 123° |
| 2026-04-14 15:28 | 49.29147 | 9.56406 | 41190 ft | 496 kts | 123° |
| 2026-04-14 15:28 | 49.25347 | 9.65226 | 41194 ft | 496 kts | 123° |
| 2026-04-14 15:29 | 49.21537 | 9.74024 | 41194 ft | 496 kts | 123° |
| 2026-04-14 15:29 | 49.17718 | 9.82820 | 41194 ft | 496 kts | 123° |
| 2026-04-14 15:30 | 49.13893 | 9.91600 | 41194 ft | 496 kts | 123° |
| 2026-04-14 15:30 | 49.10068 | 10.00350 | 41193 ft | 495 kts | 123° |
| 2026-04-14 15:31 | 49.06187 | 10.08945 | 41214 ft | 494 kts | 131° |
| 2026-04-14 15:31 | 49.01366 | 10.16429 | 41209 ft | 495 kts | 135° |
| 2026-04-14 15:32 | 48.96480 | 10.23821 | 41217 ft | 495 kts | 135° |
| 2026-04-14 15:32 | 48.91611 | 10.31219 | 41221 ft | 494 kts | 135° |
| 2026-04-14 15:33 | 48.86728 | 10.38574 | 41222 ft | 494 kts | 135° |
| 2026-04-14 15:33 | 48.81870 | 10.45901 | 41218 ft | 495 kts | 135° |
| 2026-04-14 15:34 | 48.76979 | 10.53235 | 41214 ft | 494 kts | 135° |
| 2026-04-14 15:34 | 48.72103 | 10.60539 | 41211 ft | 494 kts | 136° |
| 2026-04-14 15:35 | 48.67203 | 10.67851 | 41200 ft | 493 kts | 136° |
| 2026-04-14 15:35 | 48.62307 | 10.75138 | 41197 ft | 493 kts | 136° |
| 2026-04-14 15:36 | 48.57596 | 10.82554 | 41199 ft | 492 kts | 129° |
| 2026-04-14 15:36 | 48.53300 | 10.90613 | 41195 ft | 493 kts | 129° |
| 2026-04-14 15:37 | 48.48958 | 10.98634 | 41192 ft | 493 kts | 130° |
| 2026-04-14 15:37 | 48.44617 | 11.06666 | 41197 ft | 493 kts | 129° |
| 2026-04-14 15:38 | 48.40276 | 11.14664 | 41191 ft | 494 kts | 130° |
| 2026-04-14 15:38 | 48.35920 | 11.22665 | 41188 ft | 494 kts | 130° |
| 2026-04-14 15:39 | 48.31569 | 11.30638 | 41184 ft | 492 kts | 130° |
| 2026-04-14 15:39 | 48.27328 | 11.38380 | 41184 ft | 491 kts | 130° |
| 2026-04-14 15:40 | 48.23026 | 11.46218 | 41187 ft | 491 kts | 130° |
| 2026-04-14 15:40 | 48.18673 | 11.54120 | 41184 ft | 490 kts | 130° |
| 2026-04-14 15:41 | 48.14333 | 11.61978 | 41181 ft | 489 kts | 130° |
| 2026-04-14 15:41 | 48.09986 | 11.69825 | 41178 ft | 489 kts | 130° |
| 2026-04-14 15:42 | 48.05669 | 11.77595 | 41174 ft | 489 kts | 130° |
| 2026-04-14 15:42 | 48.01311 | 11.85417 | 41174 ft | 490 kts | 130° |
| 2026-04-14 15:43 | 47.96964 | 11.93195 | 41175 ft | 491 kts | 130° |
| 2026-04-14 15:43 | 47.92578 | 12.01022 | 41176 ft | 492 kts | 130° |
| 2026-04-14 15:44 | 47.88185 | 12.08838 | 41175 ft | 491 kts | 130° |
| 2026-04-14 15:44 | 47.83818 | 12.16586 | 41174 ft | 491 kts | 130° |
| 2026-04-14 15:45 | 47.79425 | 12.24355 | 41169 ft | 490 kts | 131° |
| 2026-04-14 15:45 | 47.75030 | 12.32108 | 41170 ft | 490 kts | 131° |
| 2026-04-14 15:46 | 47.70630 | 12.39847 | 41166 ft | 490 kts | 131° |
| 2026-04-14 15:46 | 47.66229 | 12.47564 | 41164 ft | 489 kts | 131° |
| 2026-04-14 15:47 | 47.61559 | 12.54841 | 41200 ft | 486 kts | 145° |
| 2026-04-14 15:47 | 47.55955 | 12.60354 | 41169 ft | 489 kts | 148° |
| 2026-04-14 15:48 | 47.50196 | 12.65928 | 41162 ft | 490 kts | 147° |
| 2026-04-14 15:48 | 47.44593 | 12.71353 | 41155 ft | 489 kts | 148° |
| 2026-04-14 15:49 | 47.38895 | 12.76842 | 41146 ft | 488 kts | 148° |
| 2026-04-14 15:49 | 47.33211 | 12.82313 | 41143 ft | 488 kts | 148° |
| 2026-04-14 15:50 | 47.27520 | 12.87770 | 41129 ft | 487 kts | 148° |
| 2026-04-14 15:50 | 47.21836 | 12.93210 | 41126 ft | 488 kts | 148° |
| 2026-04-14 15:51 | 47.16142 | 12.98643 | 41115 ft | 488 kts | 148° |
| 2026-04-14 15:51 | 47.10448 | 13.04063 | 41106 ft | 488 kts | 148° |
| 2026-04-14 15:52 | 47.04753 | 13.09470 | 41106 ft | 488 kts | 148° |
| 2026-04-14 15:52 | 47.01910 | 13.12164 | 40699 ft | 485 kts | 148° |
| 2026-04-14 15:52 | 46.99063 | 13.14857 | 39925 ft | 488 kts | 148° |
| 2026-04-14 15:53 | 46.96206 | 13.17558 | 39242 ft | 489 kts | 148° |
| 2026-04-14 15:53 | 46.93348 | 13.20256 | 38535 ft | 489 kts | 148° |
| 2026-04-14 15:53 | 46.90490 | 13.22950 | 37773 ft | 487 kts | 148° |
| 2026-04-14 15:53 | 46.87656 | 13.25619 | 37055 ft | 483 kts | 148° |
| 2026-04-14 15:54 | 46.82020 | 13.30915 | 35593 ft | 478 kts | 149° |
| 2026-04-14 15:54 | 46.79234 | 13.33528 | 34853 ft | 475 kts | 149° |
| 2026-04-14 15:54 | 46.76501 | 13.36089 | 34145 ft | 471 kts | 149° |
| 2026-04-14 15:55 | 46.73750 | 13.38662 | 33207 ft | 469 kts | 150° |
| 2026-04-14 15:55 | 46.71007 | 13.41222 | 32241 ft | 469 kts | 149° |
| 2026-04-14 15:55 | 46.68282 | 13.43768 | 31626 ft | 461 kts | 149° |
| 2026-04-14 15:55 | 46.65598 | 13.46272 | 30909 ft | 456 kts | 149° |
| 2026-04-14 15:56 | 46.62945 | 13.48741 | 30236 ft | 451 kts | 149° |
| 2026-04-14 15:56 | 46.60300 | 13.51199 | 29454 ft | 446 kts | 149° |
| 2026-04-14 15:56 | 46.57623 | 13.53408 | 28642 ft | 439 kts | 158° |
| 2026-04-14 15:56 | 46.54753 | 13.54836 | 27859 ft | 432 kts | 169° |
| 2026-04-14 15:57 | 46.51805 | 13.55460 | 27111 ft | 426 kts | 179° |
| 2026-04-14 15:57 | 46.49853 | 13.55439 | 26590 ft | 422 kts | 186° |
| 2026-04-14 15:57 | 46.46049 | 13.54525 | 25647 ft | 416 kts | 192° |
| 2026-04-14 15:57 | 46.43245 | 13.53714 | 25647 ft | 394 kts | 192° |
| 2026-04-14 15:58 | 46.40661 | 13.52948 | 25629 ft | 374 kts | 192° |
| 2026-04-14 15:58 | 46.38145 | 13.52183 | 25574 ft | 356 kts | 192° |
| 2026-04-14 15:58 | 46.35774 | 13.51461 | 25551 ft | 339 kts | 192° |
| 2026-04-14 15:58 | 46.33593 | 13.50807 | 25435 ft | 311 kts | 192° |
| 2026-04-14 15:59 | 46.31567 | 13.50201 | 25309 ft | 285 kts | 192° |
| 2026-04-14 15:59 | 46.29706 | 13.49642 | 25216 ft | 262 kts | 192° |
| 2026-04-14 15:59 | 46.27947 | 13.49111 | 24674 ft | 258 kts | 192° |
| 2026-04-14 15:59 | 46.26186 | 13.48583 | 24122 ft | 257 kts | 192° |
| 2026-04-14 16:00 | 46.25034 | 13.48237 | 23774 ft | 255 kts | 192° |
| 2026-04-14 16:00 | 46.23279 | 13.47711 | 23152 ft | 253 kts | 192° |
| 2026-04-14 16:00 | 46.21559 | 13.47196 | 22552 ft | 251 kts | 192° |
| 2026-04-14 16:00 | 46.19877 | 13.46708 | 21973 ft | 249 kts | 191° |
| 2026-04-14 16:01 | 46.18163 | 13.46222 | 21383 ft | 246 kts | 191° |
| 2026-04-14 16:01 | 46.16511 | 13.45750 | 20823 ft | 244 kts | 191° |
| 2026-04-14 16:01 | 46.14849 | 13.45271 | 20241 ft | 243 kts | 191° |
| 2026-04-14 16:01 | 46.13196 | 13.44795 | 19766 ft | 238 kts | 191° |
| 2026-04-14 16:02 | 46.11617 | 13.44343 | 19222 ft | 237 kts | 191° |
| 2026-04-14 16:02 | 46.10005 | 13.43881 | 18709 ft | 236 kts | 191° |
| 2026-04-14 16:02 | 46.08397 | 13.43421 | 18166 ft | 234 kts | 191° |
| 2026-04-14 16:02 | 46.06801 | 13.42964 | 17585 ft | 233 kts | 190° |
| 2026-04-14 16:03 | 46.05220 | 13.42512 | 16991 ft | 231 kts | 190° |
| 2026-04-14 16:03 | 46.03653 | 13.42063 | 16437 ft | 229 kts | 190° |
| 2026-04-14 16:03 | 46.02093 | 13.41618 | 15885 ft | 227 kts | 190° |
| 2026-04-14 16:03 | 46.00543 | 13.41175 | 15354 ft | 226 kts | 189° |
| 2026-04-14 16:04 | 45.99008 | 13.40730 | 14846 ft | 224 kts | 190° |
| 2026-04-14 16:04 | 45.97486 | 13.40282 | 14345 ft | 223 kts | 189° |
| 2026-04-14 16:04 | 45.95971 | 13.39838 | 13840 ft | 221 kts | 189° |
| 2026-04-14 16:04 | 45.94483 | 13.39405 | 13303 ft | 220 kts | 189° |
| 2026-04-14 16:05 | 45.92992 | 13.38970 | 12774 ft | 218 kts | 189° |
| 2026-04-14 16:05 | 45.91514 | 13.38539 | 12266 ft | 216 kts | 189° |
| 2026-04-14 16:05 | 45.90045 | 13.38111 | 11753 ft | 215 kts | 189° |
| 2026-04-14 16:05 | 45.88587 | 13.37685 | 11257 ft | 213 kts | 189° |
| 2026-04-14 16:06 | 45.87135 | 13.37263 | 10770 ft | 212 kts | 189° |
| 2026-04-14 16:06 | 45.85697 | 13.36844 | 10304 ft | 210 kts | 189° |
| 2026-04-14 16:06 | 45.84280 | 13.36431 | 10008 ft | 200 kts | 188° |
| 2026-04-14 16:06 | 45.82953 | 13.36052 | 9581 ft | 197 kts | 186° |
| 2026-04-14 16:07 | 45.81534 | 13.36030 | 8879 ft | 206 kts | 176° |
| 2026-04-14 16:07 | 45.80114 | 13.36020 | 8431 ft | 203 kts | 178° |
| 2026-04-14 16:07 | 45.78703 | 13.35995 | 7958 ft | 201 kts | 178° |
| 2026-04-14 16:07 | 45.77306 | 13.35981 | 7500 ft | 200 kts | 178° |
| 2026-04-14 16:08 | 45.75959 | 13.35693 | 6973 ft | 205 kts | 202° |
| 2026-04-14 16:08 | 45.74890 | 13.34353 | 6519 ft | 207 kts | 234° |
| 2026-04-14 16:08 | 45.74506 | 13.32363 | 6091 ft | 213 kts | 265° |
| 2026-04-14 16:08 | 45.74512 | 13.30248 | 5832 ft | 213 kts | 269° |
| 2026-04-14 16:09 | 45.74536 | 13.28120 | 5557 ft | 214 kts | 269° |
| 2026-04-14 16:09 | 45.74547 | 13.25986 | 5275 ft | 215 kts | 269° |
| 2026-04-14 16:09 | 45.74563 | 13.23837 | 4971 ft | 216 kts | 271° |
| 2026-04-14 16:09 | 45.75094 | 13.21859 | 4627 ft | 218 kts | 309° |
| 2026-04-14 16:10 | 45.76327 | 13.20693 | 4326 ft | 212 kts | 346° |
| 2026-04-14 16:10 | 45.77772 | 13.20540 | 4086 ft | 207 kts | 3° |
| 2026-04-14 16:10 | 45.79206 | 13.20572 | 3841 ft | 206 kts | 5° |
| 2026-04-14 16:10 | 45.80636 | 13.20619 | 3566 ft | 205 kts | 8° |
| 2026-04-14 16:11 | 45.81910 | 13.21367 | 3253 ft | 196 kts | 40° |
| 2026-04-14 16:11 | 45.82686 | 13.22820 | 3008 ft | 173 kts | 68° |
| 2026-04-14 16:11 | 45.82885 | 13.24492 | 2806 ft | 173 kts | 87° |
| 2026-04-14 16:11 | 45.82863 | 13.26223 | 2580 ft | 173 kts | 91° |
| 2026-04-14 16:12 | 45.82839 | 13.27879 | 2363 ft | 158 kts | 90° |
| 2026-04-14 16:12 | 45.82833 | 13.29426 | 2147 ft | 153 kts | 89° |
| 2026-04-14 16:12 | 45.82832 | 13.30951 | 1942 ft | 152 kts | 89° |
| 2026-04-14 16:12 | 45.82828 | 13.32456 | 1735 ft | 148 kts | 89° |
| 2026-04-14 16:13 | 45.82824 | 13.33861 | 1547 ft | 134 kts | 89° |
| 2026-04-14 16:13 | 45.82822 | 13.35163 | 1374 ft | 132 kts | 89° |
| 2026-04-14 16:13 | 45.82820 | 13.36461 | 1199 ft | 130 kts | 89° |
| 2026-04-14 16:13 | 45.82810 | 13.37770 | 1027 ft | 131 kts | 90° |
| 2026-04-14 16:14 | 45.82787 | 13.39084 | 868 ft | 130 kts | 86° |
| 2026-04-14 16:14 | 45.82821 | 13.40373 | 698 ft | 125 kts | 85° |
| 2026-04-14 16:14 | 45.82830 | 13.41598 | 503 ft | 127 kts | 93° |
| 2026-04-14 16:14 | 45.82809 | 13.42912 | 394 ft | 134 kts | 91° |
| 2026-04-14 16:15 | 45.82794 | 13.44253 | 244 ft | 134 kts | 90° |
| 2026-04-14 16:15 | 45.82785 | 13.45565 | 67 ft | 122 kts | 89° |
| 2026-04-14 16:15 | 45.82787 | 13.46612 | 51 ft | 82 kts | 88° |
| 2026-04-14 16:15 | 45.82783 | 13.47262 | 55 ft | 45 kts | 90° |
| 2026-04-14 16:16 | 45.82781 | 13.47565 | 49 ft | 20 kts | 94° |
| 2026-04-14 16:16 | 45.82715 | 13.47707 | 51 ft | 17 kts | 139° |
| 2026-04-14 16:16 | 45.82639 | 13.47800 | 51 ft | 14 kts | 141° |
| 2026-04-14 16:16 | 45.82561 | 13.47891 | 51 ft | 15 kts | 140° |
| 2026-04-14 16:17 | 45.82479 | 13.47990 | 50 ft | 16 kts | 140° |
| 2026-04-14 16:17 | 45.82393 | 13.48095 | 46 ft | 17 kts | 139° |
| 2026-04-14 16:17 | 45.82305 | 13.48206 | 53 ft | 15 kts | 140° |
| 2026-04-14 16:17 | 45.82258 | 13.48300 | 51 ft | 10 kts | 90° |
| 2026-04-14 16:18 | 45.82268 | 13.48405 | 48 ft | 10 kts | 80° |
| 2026-04-14 16:18 | 45.82270 | 13.48421 | 52 ft | 0 kts | 81° |
| 2026-04-14 16:18 | 45.82270 | 13.48431 | 51 ft | 2 kts | 98° |
| 2026-04-14 16:18 | 45.82263 | 13.48454 | 47 ft | 3 kts | 133° |
| 2026-04-14 16:19 | 45.82246 | 13.48466 | 49 ft | 3 kts | 162° |
| 2026-04-14 16:19 | 45.82212 | 13.48477 | 50 ft | 7 kts | 169° |
| 2026-04-14 16:19 | 45.82207 | 13.48479 | 51 ft | 0 kts | 169° |